Tiempo atmosférico en la estación meteorológica de La Molina, Girona (1704 m.)



Fecha
DESCASC
Temp. máxima en grados centígrados (hora)
DESCASC
Temp. mínima en grados centígrados (hora)
DESCASC
Temp. media en grados centígrados
DESCASC
Racha de viento máxima en m/sg (hora)
DESCASC
Velocidad máxima media en intervalos de 10 minutos(hora)
DESCASC
Precipitaciones diarias en mm
DESCASC
Precipitaciones de 00:00 a 06:00 en mm
DESCASC
Precipitaciones de 06:00 a 12:00 en mm
DESCASC
Precipitaciones de 12:00 a 18:00 en mm
DESCASC
Precipitaciones de 18:00 a 24:00 en mm
DESCASC
02-08-2020 23.4 (13:10) 13 (06:30) 18.2 10.83 (16:40) 5.56 (18:10) 0 0 0 0 0
01-08-2020 27.4 (15:30) 16 (04:10) 21.7 10 (15:30) 4.44 (16:20) 0 0 0 0 0
31-07-2020 28.4 (16:00) 16.1 (04:30) 22.3 9.72 (15:20) 4.72 (05:50) 0 0 0 0 0
30-07-2020 27 (16:20) 14.5 (00:00) 20.8 10 (19:30) 6.39 (21:00) 0 0 0 0 0
29-07-2020 25.7 (17:00) 15.5 (00:00) 20.6 9.44 (18:20) 5 (21:20) 0 0 0 0 0
28-07-2020 25.6 (15:50) 16 (00:00) 20.8 11.67 (16:10) 5 (16:10) 2.8 2.8 0 0 0
27-07-2020 28.5 (15:30) 14.2 (00:00) 21.3 9.72 (18:10) 5 (18:30) 0 0 0 0 0
26-07-2020 24.3 (17:00) 13.3 (00:00) 18.8 9.44 (18:10) 5 (12:50) 0 0 0 0 0
25-07-2020 22.3 (17:40) 10.5 (00:00) 16.4 9.72 (16:30) 5.28 (16:30) 0 0 0 0 0
24-07-2020 22.5 (16:40) 11.6 (00:00) 17.1 10 (14:50) 4.72 (03:30) 9 0 0.2 0.2 8.6
23-07-2020 23.7 (15:20) 13.2 (00:00) 18.5 9.44 (16:00) 4.17 (15:30) 0.4 0 0 0.4 0
22-07-2020 25.1 (15:50) 13.5 (00:00) 19.3 9.44 (16:30) 4.44 (17:00) 0 0 0 0 0
21-07-2020 25 (14:00) 12.6 (00:00) 18.8 10.28 (18:00) 4.17 (18:10) 0 0 0 0 0
20-07-2020 23.4 (17:10) 11.9 (00:00) 17.6 11.39 (16:20) 6.39 (14:00) 0 0 0 0 0
19-07-2020 22.8 (14:30) 10.2 (00:00) 16.5 9.72 (16:30) 4.72 (15:20) 0.2 0 0 0 0.2
18-07-2020 23.3 (15:30) 8 (00:00) 15.6 7.78 (18:50) 4.72 (18:20) 0 0 0 0 0
17-07-2020 21.3 (15:50) 8.5 (00:00) 14.9 11.11 (15:40) 4.44 (15:40) 0 0 0 0 0
16-07-2020 21.3 (16:20) 7.2 (00:00) 14.2 10.56 (15:40) 5.28 (15:30) 0 0 0 0 0
15-07-2020 15.9 (14:30) 7.4 (00:00) 11.6 6.67 (16:20) 3.61 (15:30) 0.2 0 0.2 0 0
14-07-2020 18.3 (15:20) 6.4 (00:00) 12.3 9.44 (16:10) 4.72 (14:50) 25.4 0 0 25.4 0
13-07-2020 19.4 (11:10) 9.4 (00:00) 14.4 9.17 (17:00) 5.56 (17:30) 23.4 0 0 14.2 9.2
12-07-2020 22.2 (13:00) 12.1 (06:00) 17.2 13.06 (16:30) 6.11 (16:40) 13 0 0 13 0
11-07-2020 22.5 (16:20) 10.2 (05:50) 16.3 9.72 (16:40) 4.17 (16:40) 0.4 0 0 0 0.4
10-07-2020 23.4 (14:20) 10.9 (00:00) 17.1 10 (15:20) 5.83 (02:40) 16.4 0 0 16.2 0.2
09-07-2020 24.2 (13:30) 12.9 (18:50) 18.6 7.5 (18:20) 3.89 (18:20) 5.6 0 0 0 5.6
08-07-2020 24.7 (17:00) 10.5 (07:00) 17.6 9.44 (15:10) 5.28 (15:10) 0 0 0 0 0

Gráficas

Temp. máximas Temp. mínimas Temp. medias Precipitaciones Rachas de viento máximas Velocidades máximas media en intervalos de 10 minutos

Datos horarios

Fecha y hora oficial Temperatura (ºC) Velocidad del viento (km/h) Dirección del viento Racha (km/h) Dirección de racha Precipitación (mm) Presión (hPa) Tendencia (hPa) Humedad (%)
2020-08-06 23:00:00 17.5 5 Sur 9 Sur 0 837.4 1.5 66
2020-08-06 22:00:00 17.9 6 Sudeste 9 Sudeste 0 836.8 1 67
2020-08-06 21:00:00 20.3 4 Sudeste 18 Sur 0 836.4 -- 59
2020-08-06 20:00:00 24.4 10 Sur 29 Sur 0 835.9 -- 46
2020-08-06 19:00:00 25.5 13 Sur 29 Sur 0 835.8 -- 42
2020-08-06 18:00:00 26.1 12 Sur 26 Sudoeste 0 835.8 -- 41
2020-08-06 17:00:00 26.3 12 Sur 25 Sudoeste 0 835.8 -- 44
2020-08-06 16:00:00 26.4 10 Sur 23 Sudoeste 0 835.8 -- 44
2020-08-06 15:00:00 26.1 10 Sur 24 Nordeste 0 835.8 -- 41
2020-08-06 14:00:00 25.3 10 Noroeste 18 Noroeste 0 835.7 -- 31
2020-08-06 13:00:00 23.9 6 Noroeste 12 Noroeste 0 835.9 -- 37
2020-08-06 12:00:00 21.9 6 Noroeste 10 Norte 0 835.9 -- 40
2020-08-06 11:00:00 20.3 4 Noroeste 8 Noroeste 0 835.8 -- 39
2020-08-06 10:00:00 18.8 4 Noroeste 6 Noroeste 0 835.6 -- 40
2020-08-06 09:00:00 16 2 Sudeste 6 Sudeste 0 835.4 -- 48
2020-08-06 08:00:00 11.6 4 Sudeste 10 Sudeste 0 835 -- 58
2020-08-06 07:00:00 12 5 Sudeste 11 Sudeste 0 834.8 -- 53
2020-08-06 06:00:00 11.5 7 Sudeste 10 Sudeste 0 834.6 -- 50
2020-08-06 05:00:00 12.1 6 Sudeste 11 Sudeste 0 834.5 -- 46
2020-08-06 04:00:00 12.3 6 Sudeste 10 Sudeste 0 834.6 -- 45
2020-08-06 03:00:00 12.2 8 Sudeste 10 Sudeste 0 834.7 -- 48
2020-08-06 02:00:00 12.7 6 Sudeste 10 Sudeste 0 834.7 -- 57
2020-08-06 01:00:00 13.1 5 Sudeste 10 Sudeste 0 834.7 -- 58
2020-08-06 00:00:00 13.6 6 Sudeste 9 Sudeste 0 834.4 -- 71
2020-08-05 23:00:00 14.1 7 Sudeste 10 Sudeste 0 834.3 -- 67
2020-08-05 22:00:00 15.2 4 Sudeste 7 Sudeste 0 833.6 -- 69
2020-08-05 21:00:00 18.5 3 Este 16 Sudoeste 0 833 -- 60
2020-08-05 20:00:00 22.8 9 Sudoeste 18 Sur 0 832.5 -- 45
2020-08-05 19:00:00 23.6 4 Norte 24 Sudoeste 0 832.2 -- 45
2020-08-05 18:00:00 23.8 12 Sur 24 Sur 0 832.1 -- 48
2020-08-05 17:00:00 23.4 9 Este 27 Sudeste 0 832.1 -- 54
2020-08-05 16:00:00 24.1 6 Nordeste 22 Sur 0 832.2 -- 47
2020-08-05 15:00:00 23.9 8 Noroeste 21 Noroeste 0 832.1 -- 31
2020-08-05 14:00:00 23.1 9 Noroeste 18 Norte 0 832.1 -- 21
2020-08-05 13:00:00 22 5 Noroeste 15 Noroeste 0 832.3 -- 26
2020-08-05 12:00:00 20.6 7 Noroeste 16 Norte 0 832.2 -- 22
2020-08-05 11:00:00 18.9 5 Noroeste 12 Noroeste 0 832.1 -- 24
2020-08-05 10:00:00 16.9 6 Noroeste 10 Norte 0 832.1 -- 30
2020-08-05 09:00:00 13.1 4 Sudeste 8 Este 0 831.8 -- 38
2020-08-05 08:00:00 9.3 5 Este 9 Sur 0 831.6 -- 46
2020-08-05 07:00:00 8 6 Sudeste 11 Sudeste 0 831.6 -- 51
2020-08-05 06:00:00 7.8 6 Sudeste 9 Sur 0 831.6 -- 66
2020-08-05 05:00:00 8.5 4 Sur 8 Sur 0 831.4 -- 73
2020-08-05 04:00:00 8.8 5 Sudeste 9 Sudeste 0 831.8 -- 74
2020-08-05 03:00:00 9 4 Sudeste 9 Sudeste 0 832 -- 73
2020-08-05 02:00:00 9.6 6 Este 9 Este 0 832.3 -- 73
2020-08-05 01:00:00 9.7 5 Sur 8 Sudeste 0 832.5 -- 89
2020-08-05 00:00:00 10.7 5 Sudeste 15 Sudeste 0 832.5 -- 82
2020-08-04 23:00:00 12.6 12 Sudeste 17 Sudeste 0 832.6 -- 75
2020-08-04 22:00:00 12.5 3 Sudeste 8 Sur 0 832.3 -- 72
2020-08-04 21:00:00 15.4 5 Sudoeste 20 Sur 0 831.9 -- 59
2020-08-04 20:00:00 18.9 12 Sur 26 Sudeste 0 831.4 -- 54
2020-08-04 19:00:00 20.3 10 Sur 23 Norte 0 831.3 -- 47
2020-08-04 18:00:00 21.2 9 Norte 24 Noroeste 0 831.3 -- 31
2020-08-04 17:00:00 21.1 10 Noroeste 26 Noroeste 0 831.3 -- 30
2020-08-04 16:00:00 20.7 13 Noroeste 28 Noroeste 0 831.4 -- 26
2020-08-04 15:00:00 20 12 Noroeste 25 Noroeste 0 831.5 -- 32
2020-08-04 14:00:00 18.9 11 Norte 25 Noroeste 0 831.6 -- 31
2020-08-04 13:00:00 17.6 12 Noroeste 28 Noroeste 0 831.9 -- 34
2020-08-04 12:00:00 15.6 14 Noroeste -- -- -- 831.8 -- 38
2020-08-04 11:00:00 13.7 10 Noroeste 20 Noroeste 0 831.8 -- 46
2020-08-04 10:00:00 12.5 9 Noroeste 18 Oeste 0 831.9 -- 51
2020-08-04 09:00:00 11.1 8 Noroeste 16 Oeste 0 831.9 -- 56
2020-08-04 08:00:00 8.1 4 Este 16 Sur 0 831.8 -- 69
2020-08-04 07:00:00 7.7 10 Sur 15 Sudoeste 0 831.5 -- 73
2020-08-04 06:00:00 8.2 8 Sudoeste 14 Sur 0 831.3 -- 72
2020-08-04 05:00:00 8.4 8 Sur 16 Sur 0 831.3 -- 71
2020-08-04 04:00:00 9.2 8 Sudoeste 15 Sudoeste 0 831.5 -- 68
2020-08-04 03:00:00 9.5 8 Sudoeste 18 Sur 0 832 -- 67
2020-08-04 02:00:00 9.9 7 Sudoeste 17 Oeste 0 832.1 -- 68
2020-08-04 01:00:00 10.7 3 Sudoeste 13 Sudoeste 0 832.3 -- 66
2020-08-04 00:00:00 10.5 6 Sur 17 Sudoeste 0 832 -- 68
2020-08-03 23:00:00 11.5 9 Sudoeste 17 Sudoeste 0 831.9 -- 64
2020-08-03 22:00:00 12.9 6 Sudoeste 13 Oeste 0 831.4 -- 63
2020-08-03 21:00:00 14.2 4 Nordeste 10 Norte 0 830.5 -- 60
2020-08-03 20:00:00 15.7 4 Noroeste 22 Sudoeste 0 830.1 -- 55
2020-08-03 19:00:00 16.7 10 Sur 25 Sudoeste 0 830 -- 63
2020-08-03 18:00:00 16.9 6 Sudoeste 20 Sur 0 829.9 -- 65
2020-08-03 17:00:00 17.1 7 Sur 30 Sudeste 0 829.9 -- 64
2020-08-03 16:00:00 16.6 19 Sudeste 32 Sudeste 0 829.7 -- 68
2020-08-03 15:00:00 17.5 12 Sudeste 37 Este 0 830.1 -- 66
2020-08-03 14:00:00 19.6 8 Noroeste 26 Noroeste 0 830.4 -- 48
2020-08-03 13:00:00 19.1 10 Noroeste 25 Noroeste 0 830.4 -- 51
2020-08-03 12:00:00 17.8 11 Noroeste 18 Norte 0 830.4 -- 58
2020-08-03 11:00:00 16.4 4 Noroeste 12 Noroeste 0 830.4 -- 60
2020-08-03 10:00:00 13.9 3 Noroeste 13 Noroeste 0 830.4 -- 69
2020-08-03 09:00:00 13 4 Noroeste 12 Noroeste 0 830.4 -- 72
2020-08-03 08:00:00 11 4 Noroeste 9 Oeste 0 830.2 -- 87
2020-08-03 07:00:00 11.4 9 Este 22 Sudeste 0 830.1 -- 87
2020-08-03 06:00:00 11.4 5 Sudeste 14 Noroeste 0 830.3 -- 89
2020-08-03 05:00:00 11.3 2 Sudeste 10 Noroeste 0 830.7 -- 91
2020-08-03 04:00:00 11.4 3 Nordeste 6 Sur 0 830.9 -- 91
2020-08-03 03:00:00 11.7 3 Sudeste 8 Norte 0 831.5 -- 91
2020-08-03 02:00:00 12.4 2 Nordeste 13 Sudoeste 0 831.8 -- 87
2020-08-03 01:00:00 14.4 4 Este 28 Sur 0 832.1 -- 75
2020-08-03 00:00:00 15.6 13 Sur 25 Sudoeste 0 832.4 -- 74
2020-08-02 23:00:00 16.1 13 Sur 28 Sur 0 832.4 -- 77
2020-08-02 22:00:00 16.7 17 Sur 28 Sur 0 832.5 -- 73
2020-08-02 21:00:00 17.9 10 Sudoeste 23 Sudoeste 0 832.2 -- 67
2020-08-02 20:00:00 19.1 8 Sudoeste 23 Sudoeste 0 832 -- 60
2020-08-02 19:00:00 20 11 Sudeste 32 Sudeste 0 832.1 -- 62
2020-08-02 18:00:00 19.7 17 Sudeste 33 Sudeste 0 832.3 -- 61
2020-08-02 17:00:00 20.8 12 Sudeste 39 Este 0 832.6 -- 60
2020-08-02 16:00:00 21.1 18 Sudeste 36 Sudeste 0 832.8 -- 67
2020-08-02 15:00:00 22.5 13 Sudoeste 30 Sudoeste 0 833.1 -- 59
2020-08-02 14:00:00 23 16 Sur 31 Sudoeste 0 833.2 -- 52
2020-08-02 13:00:00 23.1 17 Sur 30 Sur 0 833.4 -- 47
2020-08-02 12:00:00 22 9 Noroeste 25 Noroeste 0 833.4 -- 46
2020-08-02 11:00:00 21 14 Noroeste 31 Noroeste 0 833.5 -- 48
2020-08-02 10:00:00 20.5 9 Noroeste 22 Sur 0 833.5 -- 45
2020-08-02 09:00:00 17.1 3 Nordeste 12 Norte 0 833.5 -- 68
2020-08-02 08:00:00 13.2 4 Sur 8 Sudeste 0 833.7 -- 83
2020-08-02 07:00:00 13.2 3 Sudeste 10 Sur 0 833.8 -- 78
2020-08-02 06:00:00 13.2 3 Sudeste 7 Sudeste 0 833.9 -- 80
2020-08-02 05:00:00 13.5 3 Este 6 Sudeste 0 834 -- 82
2020-08-02 04:00:00 15.2 0 Calma 12 Sudoeste 0 834.2 -- 74
2020-08-02 03:00:00 17.6 5 Sudoeste 26 Sudeste 0 834.5 -- 69
2020-08-02 02:00:00 17.5 14 Sudeste 25 Sudeste 0 835 -- 70
2020-08-02 01:00:00 15.6 5 Sudeste 8 Sudeste 0 835.3 -- 74
2020-08-02 00:00:00 16.2 5 Sudeste 8 Sudeste 0 835.9 -- 76
2020-08-01 23:00:00 17.1 7 Sur 17 Sudeste 0 836.1 -- 75
2020-08-01 22:00:00 19.3 12 Sudeste 17 Sudeste 0 835.8 -- 76
2020-08-01 21:00:00 20.8 5 Norte 26 Sudoeste 0 835.4 -- 61
2020-08-01 20:00:00 23.1 12 Sudoeste 29 Sudoeste 0 834.7 -- 49
2020-08-01 19:00:00 24.4 11 Sudoeste 32 Sudoeste 0 834.9 -- 48
2020-08-01 18:00:00 25.5 9 Sudoeste 31 Sudoeste 0 835 -- 46
2020-08-01 17:00:00 25.9 7 Este 34 Sudeste 0 835 -- 49
2020-08-01 16:00:00 25.5 13 Sudeste 36 Este 0 835.7 -- 49
2020-08-01 15:00:00 27.1 12 Sudoeste 33 Sudoeste 0 835.9 -- 41
2020-08-01 14:00:00 26.7 8 Este 29 Sudeste 0 836.2 -- 38
2020-08-01 13:00:00 26 15 Sudoeste 31 Sudoeste 0 836.9 -- 40
2020-08-01 12:00:00 25.5 12 Sudoeste 26 Sudoeste 0 837.2 -- 37
2020-08-01 11:00:00 25.9 6 Sur 19 Sudoeste 0 837 -- 33
2020-08-01 10:00:00 24.1 3 Noroeste 6 Noroeste 0 837 -- 44
2020-08-01 09:00:00 20.2 3 Sudeste 9 Sudeste 0 837.1 -- 53
2020-08-01 08:00:00 16.6 6 Sudeste 11 Sudeste 0 837 -- 61
2020-08-01 07:00:00 16.7 6 Sudeste 10 Sudeste 0 837.1 -- 56
2020-08-01 06:00:00 16.4 6 Sudeste 11 Este 0 837 -- 56
2020-08-01 05:00:00 16.4 5 Este 11 Sudeste 0 837 -- 57
2020-08-01 04:00:00 16.3 7 Sudeste 10 Sudeste 0 837.3 -- 60
2020-08-01 03:00:00 17.1 4 Sudeste 12 Sudeste 0 837.3 -- 53
2020-08-01 02:00:00 17.4 7 Sudeste 12 Sudeste 0 837.6 -- 55
2020-08-01 01:00:00 17.4 7 Sudeste 10 Sudeste 0 837.8 -- 57
2020-08-01 00:00:00 17.9 6 Sur 10 Sur 0 837.7 -- 55
2020-07-31 23:00:00 20.1 3 Sudoeste 23 Sudeste 0 837.5 -- 56
2020-07-31 22:00:00 21.9 12 Sur 26 Sudeste 0 837.2 -- 52
2020-07-31 21:00:00 22.8 13 Sur 27 Sur 0 836.7 -- 51
2020-07-31 20:00:00 25.5 14 Sur 29 Sudoeste 0 836.4 -- 41
2020-07-31 19:00:00 26.9 14 Sudoeste 26 Sudoeste 0 836.4 -- 35
2020-07-31 18:00:00 27.8 8 Oeste 29 Sudoeste 0 836.7 -- 32
2020-07-31 17:00:00 27.2 11 Sudeste 31 Sudoeste 0 836.7 -- 33
2020-07-31 16:00:00 28.4 10 Sudeste 35 Sudeste 0 836.9 -- 29
2020-07-31 15:00:00 26.5 8 Sudeste 31 Sudeste 0 836.8 -- 37
2020-07-31 14:00:00 26.2 6 Sur 26 Sudoeste 0 837 -- 33
2020-07-31 13:00:00 26.4 7 Sur 23 Sudoeste 0 837.2 -- 32
2020-07-31 12:00:00 25.9 7 Sur 21 Sur 0 837.2 -- 35
2020-07-31 11:00:00 25.2 9 Sur 24 Sudeste 0 837.2 -- 27
2020-07-31 10:00:00 24.5 9 Sur 21 Sudeste 0 836.9 -- 30
2020-07-31 09:00:00 21.6 3 Noroeste 10 Sudeste 0 836.7 -- 34
2020-07-31 08:00:00 19.9 9 Sudeste 19 Sur 0 836.6 -- 35
2020-07-31 07:00:00 21.1 10 Sur 24 Sudeste 0 836.8 -- 30
2020-07-31 06:00:00 21.2 11 Sudeste 26 Sudeste 0 836.6 -- 30
2020-07-31 05:00:00 16.5 4 Sudeste 10 Este 0 836.4 -- 50
2020-07-31 04:00:00 16.6 4 Sudeste 12 Sudeste 0 837.1 -- 58
2020-07-31 03:00:00 18.2 4 Sudeste 29 Sur 0 837.6 -- 60
2020-07-31 02:00:00 17.7 6 Sudeste 12 Sudeste 0 837.7 -- 51
2020-07-31 01:00:00 17.5 5 Sudeste 12 Sudeste 0 838 -- 52
2020-07-31 00:00:00 17.5 5 Este 11 Sudeste 0 838.2 -- 53
2020-07-30 23:00:00 18.3 6 Sudeste 10 Este 0 838.1 -- 61
2020-07-30 22:00:00 20.6 0 Calma 32 Sudeste 0 837.6 -- 52
2020-07-30 21:00:00 21.5 23 Sur 33 Sudeste 0 837.1 -- 52
2020-07-30 20:00:00 24.4 15 Sur 36 Sudoeste 0 836.8 -- 41
2020-07-30 19:00:00 25.6 15 Sudoeste 32 Sudoeste 0 836.9 -- 40
2020-07-30 18:00:00 26.6 9 Sur 29 Sudoeste 0 837.1 -- 38
2020-07-30 17:00:00 26.7 15 Sur 30 Sudoeste 0 837.3 -- 37
2020-07-30 16:00:00 26.7 12 Sur 33 Sudeste 0 837.2 -- 37
2020-07-30 15:00:00 26.1 13 Sudeste 33 Sudeste 0 837.4 -- 38
2020-07-30 14:00:00 26.6 7 Sur 30 Sudoeste 0 837.5 -- 34
2020-07-30 13:00:00 26 11 Sur 31 Sudeste 0 837.6 -- 36
2020-07-30 12:00:00 25.7 9 Sudoeste 22 Sur 0 837.7 -- 26
2020-07-30 11:00:00 23.5 7 Noroeste 12 Norte 0 837.5 -- 38
2020-07-30 10:00:00 22.1 4 Noroeste 8 Noroeste 0 837.4 -- 52
2020-07-30 09:00:00 19.6 2 Este 6 Sudeste 0 837.1 -- 63
2020-07-30 08:00:00 15.6 5 Sudeste 10 Sudeste 0 837.1 -- 66
2020-07-30 07:00:00 14.8 8 Sudeste 11 Sudeste 0 836.9 -- 62
2020-07-30 06:00:00 14.7 7 Sudeste 11 Sudeste 0 836.6 -- 72
2020-07-30 05:00:00 15 9 Sudeste 11 Sudeste 0 836.5 -- 74
2020-07-30 04:00:00 15.1 5 Sudeste 12 Sudeste 0 836.8 -- 74
2020-07-30 03:00:00 15.7 5 Sudeste 9 Sudeste 0 837 -- 70
2020-07-30 02:00:00 15.9 5 Sudeste 9 Sudeste 0 837.1 -- 79
2020-07-30 01:00:00 16.6 5 Sudeste 11 Sudeste 0 837.3 -- 77
2020-07-30 00:00:00 18 6 Este 13 Este 0 837.1 -- 65
2020-07-29 23:00:00 18.1 4 Sudeste 12 Sudeste 0 837.1 -- 67
2020-07-29 22:00:00 19.9 8 Sudeste 26 Sudeste 0 836.7 -- 61
2020-07-29 21:00:00 20.7 16 Sudeste 26 Sudeste 0 836.5 -- 60
2020-07-29 20:00:00 23.6 7 Oeste 28 Sudoeste 0 836.4 -- 49
2020-07-29 19:00:00 24.6 9 Sudoeste 34 Sudoeste 0 836.2 -- 45
2020-07-29 18:00:00 25 15 Sudoeste 33 Sudoeste 0 836.4 -- 43
2020-07-29 17:00:00 25.7 6 Oeste 29 Sudeste 0 836.5 -- 47
2020-07-29 16:00:00 25.4 9 Oeste 28 Sur 0 836.6 -- 45
2020-07-29 15:00:00 25.1 7 Sudoeste 28 Sudeste 0 836.8 -- 44
2020-07-29 14:00:00 24.7 12 Sur 27 Sur 0 837 -- 45
2020-07-29 13:00:00 24.8 10 Sur 24 Sur 0 836.9 -- 44
2020-07-29 12:00:00 23.5 8 Norte 14 Norte 0 836.9 -- 40
2020-07-29 11:00:00 22.6 5 Noroeste 12 Noroeste 0 836.7 -- 42
2020-07-29 10:00:00 21.9 5 Norte 11 Norte 0 836.7 -- 44
2020-07-29 09:00:00 19.7 4 Norte 7 Noroeste 0 836.6 -- 49
2020-07-29 08:00:00 17.3 4 Nordeste 13 Sur 0 836.3 -- 52
2020-07-29 07:00:00 15.7 5 Sudeste 15 Sur 0 836 -- 55
2020-07-29 06:00:00 17 7 Sur 15 Sur 0 836 -- 49
2020-07-29 05:00:00 17.8 4 Sudoeste 20 Sudoeste 0 835.8 -- 45
2020-07-29 04:00:00 18.3 10 Sur 18 Sur 0 835.9 -- 41
2020-07-29 03:00:00 15.6 6 Sudeste 10 Sudeste 0 836.2 -- 54
2020-07-29 02:00:00 16 5 Sudeste 10 Sudeste 0 836.6 -- 57
2020-07-29 01:00:00 16.3 5 Sudeste 10 Sudoeste 0 836.8 -- 53
2020-07-29 00:00:00 17 4 Sudeste 12 Sur 0 836.9 -- 56
2020-07-28 23:00:00 19.5 7 Sudoeste 20 Sur 0 836.9 -- 51
2020-07-28 22:00:00 19.9 9 Sur 23 Sur 0 836.7 -- 53
2020-07-28 21:00:00 21.2 14 Sur 26 Sur 0 836.6 -- 57
2020-07-28 20:00:00 24 4 Noroeste 20 Este 0 836.3 -- 42
2020-07-28 19:00:00 25 9 Oeste 26 Sudoeste 0 836.2 -- 40
2020-07-28 18:00:00 25.2 8 Sudoeste 27 Sudoeste 0 836.3 -- 39
2020-07-28 17:00:00 25.2 9 Sudoeste 42 Sudoeste 0 836.4 -- 41
2020-07-28 16:00:00 25.4 10 Oeste 34 Sudeste 0 836.2 -- 38
2020-07-28 15:00:00 24.9 14 Sudoeste 34 Sudoeste 0 836.4 -- 34
2020-07-28 14:00:00 25.3 10 Sudoeste 29 Sudoeste 0 836.5 -- 39
2020-07-28 13:00:00 24.8 8 Sudoeste 24 Sudoeste 0 836.8 -- 39
2020-07-28 12:00:00 24.6 8 Sur 28 Sudoeste 0 836.7 -- 38
2020-07-28 11:00:00 23.8 9 Sur 19 Sur 0 836.6 -- 31
2020-07-28 10:00:00 22.5 8 Sur 16 Sur 0 836.4 -- 40
2020-07-28 09:00:00 20.8 5 Sudoeste 21 Sur 0 836.3 -- 52
2020-07-28 08:00:00 19.9 9 Sur 17 Sudeste 0 836.3 -- 44
2020-07-28 07:00:00 18.7 4 Sudeste 24 Sudoeste 0 836.3 -- 56
2020-07-28 06:00:00 20 16 Oeste 32 Sudoeste 0 836 -- 48
2020-07-28 05:00:00 16.6 4 Sur 11 Sudeste 0 836.1 -- 67
2020-07-28 04:00:00 16.2 8 Sudeste 11 Sudeste 0 836.7 -- 78
2020-07-28 03:00:00 17 4 Sudeste 15 Sudoeste 0 837.4 -- 75
2020-07-28 02:00:00 16.3 10 Sur 18 Sur 0.2 837.9 -- 84
2020-07-28 01:00:00 18.1 8 Este 16 Sudeste 2.6 837.5 -- 79
2020-07-28 00:00:00 19 6 Sudeste 16 Sudeste 0 837.1 -- 58
2020-07-27 23:00:00 22.2 10 Sudeste 21 Sudeste 0 837.2 -- 53
2020-07-27 22:00:00 21.9 5 Sur 20 Sur 0 836.8 -- 56
2020-07-27 21:00:00 23.3 13 Sur 26 Sur 0 836.3 -- 53
2020-07-27 20:00:00 25.6 15 Sur 32 Sur 0 836 -- 49
2020-07-27 19:00:00 26.4 15 Sur 35 Sudoeste 0 836 -- 47
2020-07-27 18:00:00 26.9 17 Sur 32 Sur 0 836.2 -- 46
2020-07-27 17:00:00 27.4 9 Sur 31 Sudeste 0 836.2 -- 46
2020-07-27 16:00:00 28.3 9 Sur 27 Sudoeste 0 836.4 -- 41
2020-07-27 15:00:00 28.2 11 Sudoeste 26 Sudoeste 0 836.6 -- 38
2020-07-27 14:00:00 27.1 6 Noroeste 23 Noroeste 0 836.8 -- 45
2020-07-27 13:00:00 25.9 6 Norte 24 Norte 0 837 -- 49
2020-07-27 12:00:00 24.9 7 Nordeste 17 Norte 0 837 -- 53
2020-07-27 09:00:00 18.2 0 Calma 5 Sudeste 0 836.8 0.4 78
2020-07-27 08:00:00 15.5 3 Sudeste 10 Sudeste 0 836.7 0.1 86
2020-07-27 07:00:00 14.8 4 Este 12 Sudeste 0 836.5 -0.1 89
2020-07-27 06:00:00 15 6 Sudeste 13 Sudeste 0 836.4 -0.2 90
2020-07-27 05:00:00 14.4 3 Sudeste 8 Sudeste 0 836.6 -0.1 90
2020-07-27 04:00:00 14.4 6 Sudeste 10 Sudeste 0 836.6 -0.1 90
2020-07-27 03:00:00 14.6 6 Sudeste 9 Sudeste 0 836.6 0 87
2020-07-27 02:00:00 15.4 6 Sudeste 10 Sudeste 0 836.7 0.2 85
2020-07-27 01:00:00 15.8 6 Este 11 Sudeste 0 836.7 0.7 84
2020-07-27 00:00:00 16.1 4 Sudeste 9 Este 0 836.6 1.3 83
2020-07-26 23:00:00 18.2 7 Sur 28 Sur 0 836.5 1.6 76
2020-07-26 22:00:00 18.5 13 Sur 27 Sur 0 836 0.9 77
2020-07-26 21:00:00 19.7 15 Sur 27 Sur 0 835.3 0.2 69
2020-07-26 20:00:00 21.9 16 Sur 29 Sur 0 834.9 -0.3 64
2020-07-26 19:00:00 22.9 13 Sur 34 Sur 0 835.1 -0.1 61
2020-07-26 18:00:00 23.6 10 Sudoeste 30 Sudoeste 0 835.1 -0.1 55
2020-07-26 17:00:00 24 11 Sur 31 Sur 0 835.2 -0.1 53
2020-07-26 16:00:00 23.5 14 Sur 27 Sudoeste 0 835.2 -0.2 56
2020-07-26 15:00:00 23.2 14 Sur 31 Sur 0 835.2 -0.1 57
2020-07-26 14:00:00 22.5 13 Sur 27 Sudoeste 0 835.3 0.2 64
2020-07-26 13:00:00 21.5 15 Sur 30 Sur 0 835.4 0.4 63
2020-07-26 12:00:00 20.7 15 Sur 31 Sur 0 835.3 0.6 63
2020-07-26 11:00:00 19.8 17 Sur 30 Sur 0 835.1 0.9 64
2020-07-26 10:00:00 20 7 Sur 23 Sudeste 0 835 -- 55
2020-07-26 09:00:00 18 16 Sudeste 24 Sudeste 0 834.7 -- 60
2020-07-26 08:00:00 15.9 5 Sur 13 Sur 0 834.2 -- 64
2020-07-26 07:00:00 13.8 2 Sudeste 10 Sudeste 0 834.1 -- 75
2020-07-26 06:00:00 13.4 5 Sur 12 Sudeste 0 833.8 -- 79
2020-07-26 05:00:00 13.6 6 Sudeste 13 Sudeste 0 833.8 -- 79
2020-07-26 04:00:00 15.6 6 Sudeste 25 Sur 0 833.9 -- 71
2020-07-26 03:00:00 14.7 6 Sudeste 13 Sudeste 0 834.2 -- 72
2020-07-26 02:00:00 13.9 8 Sudeste 10 Sudeste 0 834.2 -- 77
2020-07-26 01:00:00 13.7 5 Sudeste 10 Sudeste 0 834.2 -- 80
2020-07-26 00:00:00 14.2 6 Sudeste 10 Sudeste 0 834.2 -- 76
2020-07-25 23:00:00 14.9 6 Sudeste 12 Sur 0 834.2 -- 75
2020-07-25 22:00:00 17.1 8 Sudeste 30 Sudeste 0 833.5 -- 67
2020-07-25 21:00:00 18.1 18 Sudeste 27 Sudeste 0 833.1 -- 70
2020-07-25 20:00:00 20.5 13 Sur 33 Sudeste 0 832.9 -- 53
2020-07-25 19:00:00 21.8 10 Sudoeste 27 Sudoeste 0 832.8 -- 51
2020-07-25 18:00:00 22 11 Sudoeste 28 Sudoeste 0 833 -- 51
2020-07-25 17:00:00 21.7 13 Sur 35 Sudeste 0 833.2 -- 62
2020-07-25 16:00:00 21.2 11 Este 32 Sudoeste 0 833.3 -- 65
2020-07-25 15:00:00 21.4 15 Sur 34 Sur 0 833.5 -- 63
2020-07-25 14:00:00 21.4 12 Sur 26 Sur 0 833.7 -- 59
2020-07-25 13:00:00 20.4 3 Oeste 17 Noroeste 0 833.8 -- 59
2020-07-25 12:00:00 19.8 6 Norte 16 Nordeste 0 833.8 -- 63
2020-07-25 11:00:00 19.4 10 Nordeste 27 Norte 0 833.4 -- 63
2020-07-25 10:00:00 17.8 6 Norte 13 Este 0 833.5 -- 67
2020-07-25 09:00:00 15.4 3 Nordeste 8 Nordeste 0 833.5 -- 80
2020-07-25 08:00:00 12 2 Este 8 Este 0 833.4 -- 97
2020-07-25 07:00:00 11.3 4 Este 10 Sudeste 0 833.2 -- 100
2020-07-25 06:00:00 11 6 Sudeste 10 Sudeste 0 833.3 -- 95
2020-07-25 05:00:00 11.7 5 Sudeste 9 Sudeste 0 833.5 -- 97
2020-07-25 04:00:00 11.5 4 Este 10 Sudeste 0 833.8 -- 97
2020-07-25 03:00:00 11.7 5 Sudeste 8 Sudeste 0 834.1 -- 98
2020-07-25 02:00:00 12.2 6 Sudeste 8 Sudeste 0 834.2 -- 98
2020-07-25 01:00:00 12.6 5 Sudeste 9 Sur 0 834.4 -- 95
2020-07-25 00:00:00 14.3 3 Oeste 15 Sudeste 0 834.4 -- 90
2020-07-24 23:00:00 14.5 4 Nordeste 17 Sur 0 834.4 -- 92
2020-07-24 22:00:00 14.9 6 Sur 22 Sudoeste 0 834 -- 89
2020-07-24 21:00:00 15.4 10 Sur 21 Sur 0 833.5 -- 82
2020-07-24 20:00:00 15.3 6 Sudeste 15 Sudeste 4.8 833.3 -- 92
2020-07-24 19:00:00 16.9 8 Sudeste 18 Sur 3.8 833.2 -- 80
2020-07-24 18:00:00 20.4 9 Sur 22 Sudoeste 0.2 832.9 -- 59
2020-07-24 17:00:00 21.1 10 Sur 26 Sudoeste 0 832.6 -- 55
2020-07-24 16:00:00 21.9 12 Sudoeste 35 Sudoeste 0 833 -- 58
2020-07-24 15:00:00 21.5 14 Sur 36 Sudoeste 0 833.1 -- 56
2020-07-24 14:00:00 21.3 13 Sur 23 Sur 0 833.3 -- 59
2020-07-24 13:00:00 20.3 8 Norte 16 Noroeste 0 833.5 -- 55
2020-07-24 12:00:00 20 5 Norte 13 Norte 0 833.5 -- 65
2020-07-24 11:00:00 18.6 8 Noroeste 12 Noroeste 0 833.5 -- 68
2020-07-24 10:00:00 17.1 6 Noroeste 12 Nordeste 0 833.5 -- 71
2020-07-24 09:00:00 15.2 3 Norte 7 Norte 0 833.3 -- 73
2020-07-24 08:00:00 12.2 3 Sudoeste 28 Noroeste 0 833.1 -- 91
2020-07-24 07:00:00 12.3 7 Noroeste 27 Noroeste 0.2 833.7 -- 90
2020-07-24 06:00:00 12.6 4 Sudeste 10 Sudeste 0 833.1 -- 83
2020-07-24 05:00:00 11.8 6 Sudeste 10 Sudeste 0 833 -- 85
2020-07-24 04:00:00 13.3 3 Sudeste 27 Sudeste 0 833.4 -- 78
2020-07-24 03:00:00 14 6 Noroeste 10 Norte 0 833.9 -- 76
2020-07-24 02:00:00 13.4 5 Sudeste 9 Sudeste 0 834.3 -- 80
2020-07-24 01:00:00 13.4 4 Sudeste 8 Sudeste 0 834.4 -- 81
2020-07-24 00:00:00 13.6 8 Sudeste 11 Sudeste 0 834.6 -- 79
2020-07-23 23:00:00 14.3 6 Sudeste 15 Sudeste 0 835 -- 81
2020-07-23 22:00:00 14.8 4 Sudeste 13 Sudeste 0 834.5 -- 80
2020-07-23 21:00:00 15.6 6 Sudeste 18 Nordeste 0 834.4 -- 75
2020-07-23 20:00:00 16.9 6 Este 24 Sudeste 0 834.1 -- 68
2020-07-23 19:00:00 16.1 12 Este 27 Este 0 834.4 -- 83
2020-07-23 18:00:00 17.9 10 Este 28 Sudoeste 0.4 834.2 -- 74
2020-07-23 17:00:00 21 10 Oeste 31 Sudoeste 0 834 -- 58
2020-07-23 16:00:00 23 14 Sur 34 Sur 0 834.1 -- 50
2020-07-23 15:00:00 23 13 Sur 28 Sudoeste 0 834.6 -- 50
2020-07-23 14:00:00 22.8 12 Sur 32 Sudeste 0 834.9 -- 51
2020-07-23 13:00:00 22.7 11 Sur 25 Sudoeste 0 835.1 -- 51
2020-07-23 12:00:00 21.9 8 Sudoeste 20 Sudoeste 0 835.3 -- 52
2020-07-23 11:00:00 21.4 7 Este 18 Nordeste 0 835.4 -- 53
2020-07-23 10:00:00 19.5 4 Noroeste 10 Nordeste 0 835.5 -- 61
2020-07-23 09:00:00 17.7 0 Calma 6 Noroeste 0 835.5 -- 74
2020-07-23 08:00:00 15.9 4 Sudeste 8 Sudeste 0 835.6 -- 74
2020-07-23 07:00:00 15 5 Sudeste 7 Sudeste 0 835.6 -- 75
2020-07-23 06:00:00 15 4 Sudeste 6 Sudeste 0 835.8 -- 76
2020-07-23 05:00:00 15.1 3 Este 8 Sudeste 0 835.8 -- 76
2020-07-23 04:00:00 15.4 5 Sudeste 10 Sudeste 0 836.3 -- 77
2020-07-23 03:00:00 14.3 7 Sudeste 10 Sudeste 0 836.6 -- 79
2020-07-23 02:00:00 14.6 5 Sudeste 14 Oeste 0 837.2 -- 79
2020-07-23 01:00:00 15.6 5 Sur 14 Sudoeste 0 837.5 -- 71
2020-07-23 00:00:00 15.5 8 Sur 11 Sur 0 837.3 -- 71
2020-07-22 23:00:00 15.7 5 Sur 9 Sudeste 0 837.2 -- 67
2020-07-22 22:00:00 18.1 5 Sur 15 Sudeste 0 837 -- 54
2020-07-22 21:00:00 19.4 14 Sudeste 23 Sur 0 836.6 -- 51
2020-07-22 20:00:00 21.9 11 Sur 25 Sur 0 836.5 -- 42
2020-07-22 19:00:00 22.9 13 Sur 25 Sur 0 836.5 -- 40
2020-07-22 18:00:00 24.3 11 Sur 29 Sudoeste 0 836.8 -- 39
2020-07-22 17:00:00 24.1 16 Sudoeste 34 Sudeste 0 837 -- 37
2020-07-22 16:00:00 24.8 7 Sudoeste 23 Noroeste 0 837.2 -- 36
2020-07-22 15:00:00 24.2 7 Norte 24 Sudeste 0 837.5 -- 39
2020-07-22 14:00:00 23.6 9 Sudoeste 28 Sur 0 838.2 -- 41
2020-07-22 13:00:00 23.4 10 Sudoeste 26 Sudoeste 0 838.3 -- 45
2020-07-22 12:00:00 23.4 10 Sudoeste 22 Sudoeste 0 838.3 -- 37
2020-07-22 11:00:00 20.8 3 Noroeste 8 Noroeste 0 838.5 -- 57
2020-07-22 10:00:00 19.9 3 Sudoeste 15 Nordeste 0 838.3 -- 65
2020-07-22 09:00:00 19.5 6 Este 15 Nordeste 0 838.5 -- 61
2020-07-22 08:00:00 16.8 5 Sur 16 Sudoeste 0 838.2 -- 60
2020-07-22 07:00:00 14.4 5 Sudeste 9 Sur 0 838.1 -- 72
2020-07-22 06:00:00 14.9 4 Sur 9 Sudeste 0 837.9 -- 69
2020-07-22 05:00:00 13.8 5 Sudeste 9 Sudeste 0 837.9 -- 67
2020-07-22 04:00:00 13.6 7 Sudeste 12 Sudeste 0 838.1 -- 63
2020-07-22 03:00:00 14.4 4 Este 9 Sudeste 0 838.5 -- 56
2020-07-22 02:00:00 14.8 5 Sudeste 10 Sudeste 0 838.7 -- 58
2020-07-22 01:00:00 14.8 6 Sudeste 11 Sudeste 0 838.8 -- 53
2020-07-22 00:00:00 15.6 7 Sudeste 11 Sudeste 0 838.8 -- 53
2020-07-21 23:00:00 15 5 Sur 11 Sur 0 838.8 -- 57
2020-07-21 22:00:00 15.7 7 Sur 10 Sur 0 838.7 -- 53
2020-07-21 21:00:00 17.6 5 Sur 12 Sur 0 838.4 -- 55
2020-07-21 20:00:00 19.1 7 Sur 14 Sur 0 838.3 -- 51
2020-07-21 19:00:00 20.1 8 Sudeste 26 Sudeste 0 838.6 -- 42
2020-07-21 18:00:00 20.9 10 Sur 37 Sudeste 0 838.6 -- 42
2020-07-21 17:00:00 24.6 10 Sudoeste 30 Sudoeste 0 838 -- 50
2020-07-21 16:00:00 24.6 10 Sudoeste 32 Sudoeste 0 838 -- 50
2020-07-21 15:00:00 24.6 14 Sur 27 Sur 0 838.1 -- 53
2020-07-21 14:00:00 25 8 Sudoeste 22 Sudoeste 0 838.1 -- 50
2020-07-21 13:00:00 23.3 7 Noroeste 15 Noroeste 0 838.2 -- 52
2020-07-21 12:00:00 22.3 7 Noroeste 11 Norte 0 838.4 -- 53
2020-07-21 11:00:00 21.4 4 Norte 9 Norte 0 838.3 -- 50
2020-07-21 10:00:00 20 3 Noroeste 6 Noroeste 0 838 -- 53
2020-07-21 09:00:00 18.6 0 Calma 8 Sudeste 0 837.8 -- 64
2020-07-21 08:00:00 15.4 2 Este 8 Sudeste 0 837.4 -- 67
2020-07-21 07:00:00 13 6 Sudeste 11 Sudeste 0 837.2 -- 73
2020-07-21 06:00:00 12.7 6 Sudeste 11 Sudeste 0 837.2 -- 73
2020-07-21 05:00:00 12.7 5 Sudeste 11 Sudeste 0 837.3 -- 72
2020-07-21 04:00:00 12.9 7 Sudeste 12 Sudeste 0 837.3 -- 72
2020-07-21 03:00:00 12.9 7 Sudeste 10 Sudeste 0 837.5 -- 72
2020-07-21 02:00:00 13.4 4 Sudeste 9 Sudeste 0 837.7 -- 72
2020-07-21 01:00:00 13.3 6 Sudeste 10 Sudeste 0 837.8 -- 66
2020-07-21 00:00:00 13.5 6 Sudeste 10 Sudeste 0 837.5 -- 69
2020-07-20 23:00:00 14.1 6 Sudeste 11 Sudeste 0 837.4 -- 66
2020-07-20 22:00:00 14.3 6 Sudeste 9 Sudeste 0 837.1 -- 66
2020-07-20 21:00:00 15.8 4 Sur 8 Norte 0 837.2 -- 69
2020-07-20 20:00:00 17.7 4 Este 15 Sudoeste 0 836.9 -- 63
2020-07-20 19:00:00 18.2 6 Sur 13 Sudoeste 0 837 -- 50
2020-07-20 18:00:00 18.4 6 Oeste 32 Sudoeste 0 837.3 -- 53
2020-07-20 17:00:00 22.7 6 Sur 41 Sudoeste 0 836.3 -- 52
2020-07-20 16:00:00 22.3 12 Sudoeste 40 Sudoeste 0 835.9 -- 48
2020-07-20 15:00:00 22 15 Sur 36 Sudeste 0 835.8 -- 49
2020-07-20 14:00:00 22 23 Sur 37 Sur 0 836 -- 59
2020-07-20 13:00:00 22.8 15 Sur 25 Sur 0 836 -- 43
2020-07-20 12:00:00 21 6 Sudeste 18 Sur 0 835.9 -- 36
2020-07-20 11:00:00 20.1 6 Noroeste 10 Norte 0 835.7 -- 67
2020-07-20 10:00:00 18.9 2 Noroeste 10 Norte 0 835.4 -- 71
2020-07-20 09:00:00 17 0 Calma 3 Sudeste 0 835.1 -- 81
2020-07-20 08:00:00 14.4 3 Sudeste 8 Sudeste 0 835.1 -- 88
2020-07-20 07:00:00 12.4 5 Este 9 Sudeste 0 835 -- 92
2020-07-20 06:00:00 12.1 5 Sudeste 8 Este 0 834.9 -- 90
2020-07-20 05:00:00 12.8 7 Sudeste 10 Sudeste 0 834.8 -- 87
2020-07-20 04:00:00 13.2 4 Sudeste 10 Sudeste 0 834.9 -- 84
2020-07-20 03:00:00 13.5 6 Sudeste 12 Sudeste 0 834.8 -- 83
2020-07-20 02:00:00 13.4 6 Sudeste 10 Sudeste 0 835.2 -- 85
2020-07-20 01:00:00 13.8 5 Sudeste 10 Sudeste 0 835.5 -- 84
2020-07-20 00:00:00 14.3 6 Sudeste 8 Sudeste 0 835.6 -- 87
2020-07-19 23:00:00 15.2 5 Sudeste 8 Sudeste 0 835.5 -- 84
2020-07-19 22:00:00 15.7 6 Sudeste 9 Sudeste 0 834.9 -- 84
2020-07-19 21:00:00 18.4 5 Sudoeste 23 Sudoeste 0 834.5 -- 73
2020-07-19 20:00:00 19.2 12 Sudeste 34 Sudeste 0 834.4 -- 66
2020-07-19 19:00:00 18.3 10 Sudeste 30 Sur 0.2 834.5 -- 76
2020-07-19 18:00:00 22.6 14 Sur 34 Sudoeste 0 834 -- 57
2020-07-19 17:00:00 22.3 13 Sur 35 Sudoeste 0 834.2 -- 59
2020-07-19 16:00:00 22.5 13 Sudoeste 33 Sudoeste 0 834.2 -- 60
2020-07-19 15:00:00 22.4 13 Sur 26 Sur 0 834.3 -- 58
2020-07-19 14:00:00 21.7 11 Sudoeste 23 Sudoeste 0 834.2 -- 69
2020-07-19 13:00:00 20.4 11 Noroeste 15 Noroeste 0 834.2 -- 61
2020-07-19 12:00:00 20.1 8 Noroeste 12 Noroeste 0 834.1 0.1 66
2020-07-19 11:00:00 17.6 5 Noroeste 12 Noroeste 0 834.2 0.4 74
2020-07-19 10:00:00 16.2 6 Noroeste 10 Noroeste 0 834 0.2 79
2020-07-19 09:00:00 14.4 5 Noroeste 7 Noroeste 0 834 0.1 83
2020-07-19 08:00:00 13 2 Norte 7 Este 0 833.8 -- 87
2020-07-19 07:00:00 10.5 6 Sudeste 10 Sudeste 0 833.8 -- 92
2020-07-19 06:00:00 10.5 6 Sudeste 9 Sudeste 0 833.9 -- 93
2020-07-19 05:00:00 10.9 7 Sudeste 10 Sudeste 0 833.9 -- 85
2020-07-19 04:00:00 11.5 8 Sudeste 11 Sudeste 0 834.2 -- 77
2020-07-19 03:00:00 11.6 6 Sudeste 11 Sudeste 0 834.4 -- 84
2020-07-19 02:00:00 12.6 8 Sudeste 11 Sudeste 0 834.7 -- 76
2020-07-19 01:00:00 12.5 7 Sudeste 10 Sudeste 0 834.8 -- 76
2020-07-19 00:00:00 13 6 Sur 9 Sur 0 834.7 -- 80
2020-07-18 23:00:00 13.9 5 Sudeste 8 Sudeste 0 834.6 -- 81
2020-07-18 22:00:00 15.1 4 Sur 8 Sur 0 834 -- 79
2020-07-18 21:00:00 18.2 3 Noroeste 17 Oeste 0 833.6 -- 73
2020-07-18 20:00:00 20.8 6 Sudoeste 26 Sur 0 833.1 -- 60
2020-07-18 19:00:00 21.2 13 Sur 28 Sur 0 833 -- 62
2020-07-18 18:00:00 22.8 12 Sur 23 Sur 0 833.1 -- 59
2020-07-18 17:00:00 22.9 4 Sur 22 Este 0 833.1 -- 54
2020-07-18 16:00:00 23.3 6 Sudeste 19 Nordeste 0 833.1 -- 46
2020-07-18 15:00:00 22.9 5 Norte 19 Noroeste 0 833.3 -- 33
2020-07-18 14:00:00 21.6 6 Noroeste 19 Noroeste 0 833.2 -- 35
2020-07-18 13:00:00 20.5 8 Norte 16 Noroeste 0 833.5 -- 40
2020-07-18 12:00:00 19.2 6 Noroeste 18 Noroeste 0 833.4 -- 44
2020-07-18 11:00:00 17.8 4 Noroeste 10 Noroeste 0 833.3 -- 48
2020-07-18 10:00:00 16.5 2 Noroeste 9 Sudeste 0 833.5 -- 55
2020-07-18 09:00:00 14.2 3 Norte 7 Nordeste 0 833.4 -- 66
2020-07-18 08:00:00 10.9 3 Este 8 Sudeste 0 833.5 -- 73
2020-07-18 07:00:00 8.5 4 Sudeste 12 Sur 0 833.4 -- 82
2020-07-18 06:00:00 8.4 5 Sur 13 Sur 0 833.4 -- 82
2020-07-18 05:00:00 8.7 8 Sur 15 Sur 0 833.8 -- 81
2020-07-18 04:00:00 9.3 6 Sudoeste 20 Sudoeste 0 834.3 -- 80
2020-07-18 03:00:00 9.8 12 Sudoeste 21 Sur 0 834.3 -- 77
2020-07-18 02:00:00 10 8 Sudoeste 15 Sur 0 834.6 -- 74
2020-07-18 01:00:00 10.9 6 Sudoeste 14 Sudoeste 0 834.9 -- 72
2020-07-18 00:00:00 11.7 9 Sudoeste 18 Sudoeste 0 834.6 -- 72
2020-07-17 23:00:00 10.8 3 Sudeste 11 Sudeste 0 834.6 -- 79
2020-07-17 22:00:00 12.3 4 Este 12 Noroeste 0 834.1 -- 74
2020-07-17 21:00:00 15.8 6 Noroeste 16 Sudoeste 0 833.6 -- 59
2020-07-17 20:00:00 19.5 7 Sudoeste 21 Noroeste 0 833.3 -- 54
2020-07-17 19:00:00 19.1 9 Sudeste 16 Sudeste 0 833 -- 64
2020-07-17 18:00:00 18.5 7 Sudeste 22 Sudeste 0 833 -- 62
2020-07-17 17:00:00 19.3 8 Sudeste 20 Este 0 833.1 -- 61
2020-07-17 16:00:00 20.4 10 Este 40 Oeste 0 832.9 -- 62
2020-07-17 15:00:00 20.7 10 Noroeste 22 Noroeste 0 833 -- 39
2020-07-17 14:00:00 19.9 8 Oeste 20 Oeste 0 833.2 -- 48
2020-07-17 13:00:00 18.8 7 Noroeste 22 Noroeste 0 833.3 -- 46
2020-07-17 12:00:00 17.5 8 Norte 18 Noroeste 0 833.4 -- 50
2020-07-17 11:00:00 16.3 5 Noroeste 19 Noroeste 0 833.5 -- 48
2020-07-17 10:00:00 14.7 4 Noroeste 17 Sudoeste 0 833.6 -- 58
2020-07-17 09:00:00 14.1 5 Sudoeste 11 Oeste 0 833.7 -- 53
2020-07-17 08:00:00 10.9 2 Noroeste 9 Sudoeste 0 833.6 -- 75
2020-07-17 07:00:00 8.9 3 Sudeste 12 Sudeste 0 833.4 -- 88
2020-07-17 06:00:00 9 5 Sur 12 Sur 0 833.3 -- 91
2020-07-17 05:00:00 9.5 4 Sur 9 Sur 0 833.5 -- 85
2020-07-17 04:00:00 10.7 5 Sur 11 Sur 0 833.7 -- 75
2020-07-17 03:00:00 12.8 4 Sudoeste 9 Sudoeste 0 834.1 -- 77
2020-07-17 02:00:00 13.3 3 Oeste 6 Noroeste 0 834.4 -- 84
2020-07-17 01:00:00 14 3 Norte 7 Nordeste 0 834.7 -- 85
2020-07-17 00:00:00 14.6 3 Noroeste 10 Noroeste 0 834.8 -- 84
2020-07-16 23:00:00 15.1 3 Oeste 13 Este 0 834.8 -- 86
2020-07-16 22:00:00 15.3 3 Nordeste 6 Nordeste 0 834.7 -- 85
2020-07-16 21:00:00 16.3 0 Calma 11 Nordeste 0 834.6 -- 83
2020-07-16 20:00:00 17.4 5 Este 12 Sudoeste 0 834.5 -- 76
2020-07-16 19:00:00 18.3 3 Nordeste 19 Sur 0 834.5 -- 74
2020-07-16 18:00:00 18.5 13 Sur 30 Sur 0 834.6 -- 73
2020-07-16 17:00:00 18.6 15 Sur 27 Sur 0 834.4 -- 72
2020-07-16 16:00:00 20.7 14 Sur 38 Sur 0 834.5 -- 65
2020-07-16 15:00:00 20.7 5 Nordeste 16 Norte 0 834.7 -- 65
2020-07-16 14:00:00 20.1 6 Noroeste 17 Noroeste 0 834.9 -- 59
2020-07-16 13:00:00 19 10 Noroeste 18 Noroeste 0 835 -- 64
2020-07-16 12:00:00 17.8 4 Norte 10 Noroeste 0 835.3 -- 65
2020-07-16 11:00:00 16 4 Norte 12 Noroeste 0 835.1 -- 72
2020-07-16 10:00:00 14.2 3 Sudeste 12 Noroeste 0 835 -- 73
2020-07-16 09:00:00 12.4 3 Noroeste 11 Nordeste 0 834.9 -- 78
2020-07-16 08:00:00 9.9 2 Norte 9 Sudeste 0 834.6 -- 89
2020-07-16 07:00:00 7.4 4 Sudeste 10 Sudeste 0 834.5 -- 97
2020-07-16 06:00:00 7.4 5 Sudeste 9 Nordeste 0 834.5 -- 96
2020-07-16 05:00:00 7.9 6 Sur 10 Sudoeste 0 834.4 -- 94
2020-07-16 04:00:00 7.9 4 Sudeste 9 Sudeste 0 834.5 -- 96
2020-07-16 03:00:00 8.1 3 Este 10 Nordeste 0 834.6 -- 93
2020-07-16 02:00:00 8.2 5 Sudeste 9 Este 0 835 -- 94
2020-07-16 01:00:00 8.5 5 Este 10 Sudeste 0 835 -- 94
2020-07-16 00:00:00 9 5 Este 8 Sudeste 0 834.9 -- 94
2020-07-15 23:00:00 10.7 3 Sudeste 5 Sudeste 0 834.8 -- 90
2020-07-15 22:00:00 11.5 3 Sudeste 8 Este 0 834.2 -- 86
2020-07-15 21:00:00 12.3 8 Sudeste 14 Sudeste 0 834.1 -- 79
2020-07-15 20:00:00 13.2 4 Noroeste 10 Oeste 0 833.7 -- 82
2020-07-15 19:00:00 14.7 4 Oeste 20 Sur 0 833.4 -- 81
2020-07-15 18:00:00 15.1 8 Sur 23 Sur 0 833.2 -- 74
2020-07-15 17:00:00 14.7 11 Sur 24 Sudoeste 0 833.3 -- 75
2020-07-15 16:00:00 14.8 8 Sur 22 Sudeste 0 833.2 -- 74
2020-07-15 15:00:00 14.8 9 Sur 18 Sudeste 0 833.2 -- 74
2020-07-15 14:00:00 15.3 6 Noroeste 12 Noroeste 0 833.4 -- 76
2020-07-15 13:00:00 15.1 5 Noroeste 12 Norte 0 833.4 -- 79
2020-07-15 12:00:00 13.8 7 Noroeste 12 Noroeste 0.2 833.5 -- 82
2020-07-15 11:00:00 13.7 5 Norte 12 Norte 0 833.3 -- 82
2020-07-15 10:00:00 11.6 5 Norte 11 Nordeste 0 833.1 -- 88
2020-07-15 09:00:00 10.2 2 Norte 8 Este 0 833 -- 89
2020-07-15 08:00:00 9.1 3 Este 6 Este 0 832.8 -- 97
2020-07-15 07:00:00 8.1 4 Sudeste 8 Sudeste 0 832.6 -- 99
2020-07-15 06:00:00 7.6 4 Sudeste 9 Sudeste 0 832.6 -- 98
2020-07-15 05:00:00 7.5 7 Sudeste 10 Sudeste 0 832.5 -- 99
2020-07-15 04:00:00 7.5 7 Sudeste 9 Sudeste 0 832.7 -- 98
2020-07-15 03:00:00 7.7 6 Sudeste 9 Sudeste 0 832.9 -- 98
2020-07-15 02:00:00 8 6 Sudeste 10 Sudeste 0 833.1 -- 98
2020-07-15 01:00:00 8.2 6 Sudeste 9 Sudeste 0 833.5 -- 99
2020-07-15 00:00:00 8.4 6 Sudeste 9 Sudeste 0 833.6 -- 97
2020-07-14 23:00:00 9 3 Sudeste 9 Sudoeste 0 833.8 -- 96
2020-07-14 22:00:00 10.4 5 Sudeste 10 Sur 0 833.7 -- 94
2020-07-14 21:00:00 10.8 8 Sur 13 Sur 0 833.4 -- 93
2020-07-14 20:00:00 11.1 5 Sur 10 Sur 0 833.1 -- 93
2020-07-14 19:00:00 11.5 4 Este 12 Sudeste 0 833 -- 92
2020-07-14 18:00:00 11 6 Sudeste 22 Sudeste 20.6 833 -- 90
2020-07-14 17:00:00 12.7 6 Norte 34 Sudeste 4.8 833.3 -- 90
2020-07-14 16:00:00 16.7 7 Sur 30 Sudoeste 0 832.8 -- 69
2020-07-14 15:00:00 17.8 16 Sudoeste 29 Sudoeste 0 832.9 -- 60
2020-07-14 14:00:00 17.1 13 Sur 25 Sur 0 833.3 -- 66
2020-07-14 13:00:00 16.8 11 Sur 23 Sur 0 833.5 -- 64
2020-07-14 12:00:00 15.6 8 Noroeste 12 Noroeste 0 833.6 -- 71
2020-07-14 11:00:00 14.8 9 Noroeste 16 Noroeste 0 833.9 -- 66
2020-07-14 10:00:00 12.6 2 Oeste 5 Noroeste 0 834.3 -- 67
2020-07-14 09:00:00 11.7 2 Noroeste 9 Oeste 0 834.3 -- 65
2020-07-14 08:00:00 9.6 4 Sudoeste 10 Sur 0 834.3 -- 78
2020-07-14 07:00:00 6.5 6 Sur 9 Sur 0 834.3 -- 89
2020-07-14 06:00:00 6.4 6 Sudeste 10 Sur 0 834.4 -- 91
2020-07-14 05:00:00 6.8 7 Sur 10 Sudeste 0 834.5 -- 90
2020-07-14 04:00:00 7.1 7 Sur 10 Este 0 835 -- 91
2020-07-14 03:00:00 7.2 8 Sur 12 Sur 0 835.3 -- 91
2020-07-14 02:00:00 7.6 7 Sur 12 Sur 0 835.8 -- 91
2020-07-14 01:00:00 8.3 8 Sur 12 Sudoeste 0 836.1 -- 92
2020-07-14 00:00:00 9.4 9 Sur 19 Sur 0 836.4 -- 91
2020-07-13 23:00:00 10.8 11 Sur 18 Sur 0 836.4 -- 87
2020-07-13 22:00:00 11.9 7 Sur 15 Sudoeste 0 836.1 0.3 87
2020-07-13 21:00:00 14.9 5 Sudoeste 8 Sudoeste 0 835.9 -0.1 84
2020-07-13 20:00:00 14.5 2 Sudoeste 13 Sudeste 0 835.9 0.1 93
2020-07-13 19:00:00 12.8 5 Este 16 Sudeste 9.2 835.8 0 100
2020-07-13 18:00:00 13.3 5 Nordeste 31 Sudeste 3.6 836 -0.3 91
2020-07-13 17:00:00 14.1 16 Sur 33 Sur 7.2 835.8 -0.5 83
2020-07-13 16:00:00 14.6 15 Este 30 Sudeste 3.4 835.8 -0.8 88
2020-07-13 15:00:00 16.5 15 Sudeste 32 Sudeste 0 836.3 -0.4 81
2020-07-13 14:00:00 18.3 10 Sudeste 21 Sudeste 0 836.3 -0.5 78
2020-07-13 13:00:00 17.9 6 Sudeste 21 Sudeste 0 836.6 -0.2 71
2020-07-13 12:00:00 19.1 10 Norte 20 Noroeste 0 836.7 -0.1 67
2020-07-13 11:00:00 19 4 Norte 11 Norte 0 836.8 0.1 64
2020-07-13 10:00:00 17.6 5 Norte 8 Noroeste 0 836.8 0.3 67
2020-07-13 09:00:00 16.2 2 Norte 6 Noroeste 0 836.8 0.4 75
2020-07-13 08:00:00 13.2 0 Calma 9 Sudeste 0 836.7 0.5 84
2020-07-13 07:00:00 11.3 5 Sudeste 10 Sudeste 0 836.5 -- 90
2020-07-13 06:00:00 11.7 6 Sudeste 9 Sudeste 0 836.4 -0.4 88
2020-07-13 05:00:00 14.1 9 Sudeste 23 Sudeste 0 836.2 -0.8 76
2020-07-13 04:00:00 13.6 7 Sudeste 15 Sur 0 836.4 -0.8 77
2020-07-13 03:00:00 13.1 5 Sudeste 8 Sudeste 0 836.8 -0.4 87
2020-07-13 02:00:00 13.6 4 Este 7 Sudeste 0 837 -0.4 89
2020-07-13 01:00:00 13.4 4 Este 9 Sudeste 0 837.2 -0.1 90
2020-07-13 00:00:00 14 3 Sudeste 13 Este 0 837.2 -0.1 87
2020-07-12 23:00:00 14.1 6 Este 15 Este 0 837.4 0.4 87
2020-07-12 22:00:00 13.7 2 Sudeste 9 Sudeste 0 837.3 0.5 89
2020-07-12 21:00:00 15.8 3 Este 28 Sur 0 837.3 1 80
2020-07-12 20:00:00 17.3 13 Sur 33 Sur 0 837 -0.9 73
2020-07-12 19:00:00 18.3 3 Norte 15 Noroeste 0 836.8 -0.7 76
2020-07-12 18:00:00 16.1 7 Sur 25 Sudeste 0.2 836.3 -1.3 81
2020-07-12 17:00:00 15.6 4 Sudoeste 47 Sudoeste 0 837.9 0.7 81
2020-07-12 16:00:00 17.5 6 Oeste 17 Noroeste 3.6 837.5 0.8 76
2020-07-12 15:00:00 15.8 9 Sudeste 32 Norte 9.2 837.6 -- 81
2020-07-12 14:00:00 21.9 12 Noroeste 30 Sur 0 837.2 0.8 57
2020-07-12 13:00:00 22 8 Oeste 28 Sudoeste 0 836.7 -- 57
2020-07-12 12:00:00 20.8 9 Oeste 32 Noroeste 0 836.7 -- 56
2020-07-12 11:00:00 19 8 Norte 17 Este 0 836.4 -- 76
2020-07-12 10:00:00 18 5 Norte 12 Nordeste 0 836.4 0.5 81
2020-07-12 09:00:00 16 5 Noroeste 10 Noroeste 0 836.2 -- 89
2020-07-12 08:00:00 13.3 3 Este 9 Sudeste 0 836.2 -- 98
2020-07-12 07:00:00 12.5 3 Este 6 Sudeste 0 835.9 -- 99
2020-07-12 06:00:00 12.3 3 Este 7 Sudeste 0 835.6 -- 99
2020-07-12 05:00:00 12.5 3 Sudeste 7 Sudeste 0 835.6 -- 96
2020-07-12 04:00:00 13.5 3 Este 7 Sudeste 0 835.9 -- 96
2020-07-12 03:00:00 13.1 4 Sudeste 9 Sudeste 0 836.1 -- 95
2020-07-12 02:00:00 13.3 4 Sudeste 8 Sudeste 0 836.2 -- 95
2020-07-12 01:00:00 13.9 5 Este 10 Sudeste 0 836.4 -- 94
2020-07-12 00:00:00 15.3 4 Nordeste 6 Sudoeste 0 836.5 -- 92
2020-07-11 23:00:00 15.5 4 Sudeste 7 Sudeste 0 836.5 -- 92
2020-07-11 22:00:00 15.9 5 Este 19 Sur 0.4 836.2 -- 89
2020-07-11 21:00:00 16.7 13 Sur 23 Sudeste 0 836 -- 84
2020-07-11 20:00:00 17.9 10 Sur 24 Sudeste 0 835.7 -- 76
2020-07-11 19:00:00 18.5 10 Sur 26 Sudoeste 0 835.8 0.2 70
2020-07-11 18:00:00 19.1 10 Sudoeste 29 Sudoeste 0 835.7 -- 68
2020-07-11 17:00:00 21.8 13 Sur 35 Sudoeste 0 835.6 -- 64
2020-07-11 16:00:00 22.1 10 Sudoeste 29 Sudoeste 0 835.6 -- 61
2020-07-11 15:00:00 21 10 Sur 29 Sur 0 835.7 -- 63
2020-07-11 14:00:00 19.6 10 Sur 23 Sudoeste 0 835.7 -- 68
2020-07-11 13:00:00 19.6 4 Oeste 18 Noroeste 0 835.8 -- 71
2020-07-11 12:00:00 18.9 7 Norte 15 Noroeste 0 835.7 -- 68
2020-07-11 11:00:00 17.3 8 Norte 14 Norte 0 835.5 -- 69
2020-07-11 10:00:00 16.3 6 Norte 12 Nordeste 0 835.3 -- 74
2020-07-11 09:00:00 15.1 4 Norte 10 Nordeste 0 835.2 -- 76
2020-07-11 08:00:00 12.6 2 Nordeste 8 Sudeste 0 835.1 -- 86
2020-07-11 07:00:00 10.3 6 Sudeste 9 Este 0 834.9 -- 94
2020-07-11 06:00:00 10.4 5 Este 9 Este 0 834.7 -- 92
2020-07-11 05:00:00 10.7 4 Este 9 Sudeste 0 834.6 -- 90
2020-07-11 04:00:00 10.8 4 Sudeste 9 Sudeste 0 834.8 -- 89
2020-07-11 03:00:00 10.9 5 Sudeste 10 Sudeste 0 835 -- 95
2020-07-11 02:00:00 10.3 8 Sudeste 11 Sudeste 0 835.3 0 94
2020-07-11 01:00:00 10.5 7 Sudeste 13 Sudeste 0 835.4 -- 93
2020-07-11 00:00:00 11 5 Sudeste 11 Sudeste 0 835.5 -- 96
2020-07-10 23:00:00 11.4 9 Sudeste 12 Sudeste 0 835.3 -- 96
2020-07-10 22:00:00 11.6 9 Sudeste 12 Este 0 835.1 -- 95
2020-07-10 21:00:00 14 5 Sudeste 8 Sur 0 835.2 -- 90
2020-07-10 20:00:00 14.8 4 Sur 9 Sudoeste 0 835.5 -- 92
2020-07-10 19:00:00 14.7 7 Sudeste 18 Sudeste 0.2 835.2 -- 92
2020-07-10 18:00:00 12.8 15 Oeste 34 Sudoeste 14.2 835.4 -- 89
2020-07-10 17:00:00 16.3 13 Nordeste 31 Nordeste 2 835.1 -- 82
2020-07-10 16:00:00 22.4 9 Sudeste 36 Sudeste 0 834.4 -- 54
2020-07-10 15:00:00 22.3 13 Este 34 Sudeste 0 834.8 -- 52
2020-07-10 14:00:00 22.4 14 Sudeste 32 Este 0 835 -0.4 47
2020-07-10 13:00:00 22.2 10 Sudeste 35 Sudeste 0 835.1 -- 40
2020-07-10 12:00:00 21.8 12 Sudoeste 26 Sudoeste 0 835.2 -- 44
2020-07-10 11:00:00 19.5 7 Nordeste 16 Nordeste 0 835.4 0 56
2020-07-10 10:00:00 18.9 3 Este 27 Sudoeste 0 835.8 -- 60
2020-07-10 09:00:00 17 8 Sudoeste 29 Sudoeste 0 836 -- 65
2020-07-10 08:00:00 15.5 3 Sudeste 9 Nordeste 0 835.4 -- 79
2020-07-10 07:00:00 13.1 4 Sudeste 9 Este 0 835.3 -- 82
2020-07-10 06:00:00 15 6 Este 13 Este 0 835.2 -- 78
2020-07-10 05:00:00 13.3 6 Sudeste 11 Sudeste 0 835.3 -- 82
2020-07-10 04:00:00 13.7 4 Sudeste 14 Sur 0 835.5 -- 80
2020-07-10 03:00:00 17.5 15 Sur 27 Sur 0 836 -- 62
2020-07-10 02:00:00 14.6 3 Sudeste 12 Sudeste 0 835.9 -- 69
2020-07-10 01:00:00 13.6 7 Este 11 Sudeste 0 836.4 -- 76
2020-07-10 00:00:00 13.3 7 Sudeste 10 Sudeste 0 836.7 -- 84
2020-07-09 23:00:00 13.8 6 Sudeste 12 Sudeste 0 836.6 -- 82
2020-07-09 22:00:00 13.9 10 Sudeste 13 Sudeste 0 836.3 -- 83
2020-07-09 21:00:00 14.1 5 Sudeste 13 Sudeste 0 836.1 -- 80
2020-07-09 20:00:00 14.6 3 Sudeste 15 Sudeste 0.2 836.2 -- 89
2020-07-09 19:00:00 13 9 Sudeste 27 Sudeste 5.4 836.3 -- 91
2020-07-09 18:00:00 18.2 4 Sudeste 9 Sur 0 836.4 -- 78
2020-07-09 17:00:00 20.5 5 Norte 17 Norte 0 836.7 -- 60
2020-07-09 16:00:00 22.1 4 Oeste 17 Sudoeste 0 836.8 -- 61
2020-07-09 15:00:00 21.9 12 Sur 25 Sur 0 836.7 -- 55
2020-07-09 14:00:00 22 11 Nordeste 23 Sudeste 0 836.6 -- 56
2020-07-09 13:00:00 23.2 5 Nordeste 17 Norte 0 836.7 -- 57
2020-07-09 12:00:00 21.9 7 Noroeste 15 Noroeste 0 836.7 -- 62
2020-07-09 11:00:00 20.6 8 Noroeste 12 Noroeste 0 836.7 -- 66
2020-07-09 10:00:00 19.5 3 Norte 9 Noroeste 0 836.3 -- 65
2020-07-09 09:00:00 18.5 6 Norte 10 Noroeste 0 836.3 -- 68
2020-07-09 08:00:00 15.2 5 Este 13 Sudeste 0 836 -- 71
2020-07-09 07:00:00 14.8 6 Este 13 Este 0 835.7 -- 66
2020-07-09 06:00:00 14.1 3 Noroeste 10 Sudeste 0 835.1 -- 71
2020-07-09 05:00:00 13 6 Sudeste 9 Sudeste 0 835.2 -- 83
2020-07-09 04:00:00 14.3 4 Este 14 Nordeste 0 835.7 -- 86
2020-07-09 03:00:00 13.9 3 Este 9 Sudeste 0 836.4 -- 91
2020-07-09 02:00:00 13.9 5 Este 8 Sudeste 0 836.6 -- 87
2020-07-09 01:00:00 14.5 3 Este 9 Sudeste 0 836.8 -- 84
2020-07-09 00:00:00 15.1 5 Sudeste 12 Sudeste 0 836.5 -- 83
2020-07-08 23:00:00 16.7 13 Sur 23 Sur 0 836.6 -- 74
2020-07-08 22:00:00 16.9 5 Este 10 Sudeste 0 835.9 -- 77
2020-07-08 21:00:00 19.5 8 Este 16 Sur 0 835.6 -- 69
2020-07-08 20:00:00 22.3 9 Sur 28 Sudoeste 0 835.1 -- 57
2020-07-08 19:00:00 23.4 4 Este 20 Sudeste 0 834.6 -- 56
2020-07-08 18:00:00 22.9 11 Sudeste 20 Este 0 834.9 -- 62
2020-07-08 17:00:00 24.5 6 Sudeste 24 Sur 0 835 -- 54
2020-07-08 16:00:00 23 11 Sur 34 Sur 0 835.3 -- 54
2020-07-08 15:00:00 22.7 6 Este 19 Este 0 835.4 -- 69
2020-07-08 14:00:00 22.4 10 Este 23 Este 0 835.5 -- 66
2020-07-08 13:00:00 21.8 9 Noroeste 17 Noroeste 0 835.6 -- 58
2020-07-08 12:00:00 20.9 6 Nordeste 14 Noroeste 0 835.3 -- 59
2020-07-08 11:00:00 18.3 7 Noroeste 11 Noroeste 0 835.2 -- 67
2020-07-08 10:00:00 16.8 4 Norte 9 Norte 0 835.1 -- 73
2020-07-08 09:00:00 15.8 4 Noroeste 8 Norte 0 834.9 -- 74
2020-07-08 08:00:00 13.6 3 Nordeste 10 Sudeste 0 834.5 -- 81
2020-07-08 07:00:00 10.5 4 Sudeste 12 Sudeste 0 834.3 -- 92
2020-07-08 06:00:00 10.8 3 Este 8 Este 0 834.3 -- 90
2020-07-08 05:00:00 11.6 6 Sudeste 10 Sudeste 0 834.2 -- 87
2020-07-08 04:00:00 11.5 4 Este 10 Sudeste 0 834.4 -- 88
2020-07-08 03:00:00 11.8 5 Sudeste 11 Sudeste 0 834.7 -- 87
2020-07-08 02:00:00 12.6 7 Sudeste 10 Sudeste 0 835.1 -- 83
2020-07-08 01:00:00 12.8 4 Este 6 Sudeste 0 835 -- 86
2020-07-08 00:00:00 13.4 5 Este 9 Este 0 835 -- 88